MSC Orchestra — 3EJF3 — position and weather

sailwx.info

Track history (hours):
 
Tides and Currents Weather Stations Pressure Air Temp Water Temp Dewpoint Dewpoint Depression Visibility Wind Speed Wind Dir Waves Ship Positions

MSC Orchestra

Last reported at 2015-May-03 22:34 UTC. Time now 2015-May-03 22:57 UTC.
Position N 36°02' W 005°18'.

Length 292 m; draft 7.6 m.

Type: Ship. MMSI: 372497000.

Date/timePositionNaut miles runAvg speedWind from/ knotsBaromVisibWave heightAir tempDewpointWater temp
2015-May-03 22:34N 36°02' W 005°18'118 6.9
2015-May-03 05:31N 36°29' W 002°55'1717.7
2015-May-03 04:33N 36°27' W 002°35'1918.0
2015-May-03 03:32N 36°26' W 002°12'1818.8
2015-May-03 02:33N 36°38' W 001°54'1918.9
2015-May-03 01:33N 36°50' W 001°37'3818.9
2015-May-02 23:32N 37°15' W 001°01'1818.8
2015-May-02 22:33N 37°27' W 000°43'1918.9
2015-May-02 21:33N 37°41' W 000°26'2020.3
2015-May-02 20:33N 37°56' W 000°10'2120.6
2015-May-02 19:33N 38°11' E 000°08'2120.4
2015-May-02 18:33N 38°27' E 000°26'2020.1
2015-May-02 17:33N 38°41' E 000°43'2020.2
2015-May-02 16:33N 38°57' E 000°60'2020.0
2015-May-02 15:33N 39°11' E 001°18'2020.0
2015-May-02 14:33N 39°24' E 001°37'2020.0
2015-May-02 13:33N 39°37' E 001°57'2019.9
2015-May-02 12:33N 39°51' E 002°16'2020.3
2015-May-02 11:33N 40°04' E 002°36'2020.3
2015-May-02 10:33N 40°18' E 002°55'2020.1
2015-May-02 09:33N 40°31' E 003°15'2019.8
2015-May-02 08:33N 40°45' E 003°34'23020.9
2015-May-01 21:32N 43°18' E 007°25'6321.0
2015-May-01 18:32N 44°00' E 008°30'2020.7
2015-May-01 17:33N 44°14' E 008°50'1110.8
2015-May-01 16:33N 44°25' E 008°55'0 0.0
2015-May-01 15:23N 44°25' E 008°55'0 0.0
2015-May-01 14:28N 44°25' E 008°55'0 0.0
2015-May-01 13:28N 44°25' E 008°55'0 0.0
2015-May-01 12:27N 44°25' E 008°55'0 0.0
2015-May-01 11:27N 44°25' E 008°55'0 0.0
2015-May-01 10:32N 44°25' E 008°55'0 0.0
2015-May-01 09:29N 44°25' E 008°55'0 0.0
2015-May-01 08:25N 44°25' E 008°55'0 0.0
2015-May-01 07:31N 44°25' E 008°55'0 0.0
2015-May-01 06:31N 44°25' E 008°55'0 0.0
2015-May-01 05:33N 44°25' E 008°55'4 4.5
2015-May-01 04:34N 44°21' E 008°58'1615.6
2015-May-01 03:34N 44°06' E 009°06'1817.8
2015-May-01 02:34N 43°49' E 009°14'1818.2
2015-May-01 01:34N 43°32' E 009°22'1818.0
2015-May-01 00:34N 43°15' E 009°30'1817.7
2015-Apr-30 23:34N 42°59' E 009°38'1818.2
2015-Apr-30 22:34N 42°47' E 009°57'1918.2
2015-Apr-30 21:31N 42°34' E 010°17'1818.4
2015-Apr-30 20:33N 42°23' E 010°35'170 6.5
2015-Apr-29 18:33N 40°40' E 013°35'1717.2
2015-Apr-29 17:33N 40°37' E 013°58'1717.3
2015-Apr-29 16:33N 40°48' E 014°16'139 6.3
2015-Apr-28 18:33N 38°32' E 013°35'1413.8
2015-Apr-28 17:33N 38°20' E 013°29'1313.2
2015-Apr-28 16:33N 38°07' E 013°23'1 1.1
2015-Apr-28 15:33N 38°08' E 013°22'0 0.0
2015-Apr-28 14:33N 38°08' E 013°22'0 0.0
2015-Apr-28 13:33N 38°08' E 013°22'0 0.0
2015-Apr-28 12:33N 38°08' E 013°22'0 0.0
2015-Apr-28 11:34N 38°08' E 013°22'0 0.0
2015-Apr-28 10:33N 38°08' E 013°22'0 0.0
2015-Apr-28 09:33N 38°08' E 013°22'0 0.0
2015-Apr-28 08:34N 38°08' E 013°22'0 0.0
2015-Apr-28 07:34N 38°08' E 013°22'0 0.0
2015-Apr-28 06:33N 38°08' E 013°22'0 0.0
2015-Apr-28 05:33N 38°08' E 013°22'0 0.0
2015-Apr-28 04:33N 38°08' E 013°22'7 7.4
2015-Apr-28 03:33N 38°10' E 013°31'1918.6
2015-Apr-28 02:33N 38°12' E 013°54'20713.6
2015-Apr-27 11:19N 37°20' E 018°08'26215.5
2015-Apr-26 18:24N 37°23' E 023°38'1518.3
2015-Apr-26 17:34N 37°38' E 023°42'1817.7
2015-Apr-26 16:33N 37°55' E 023°37'1 1.4
2015-Apr-26 15:33N 37°56' E 023°37'0 0.0
2015-Apr-26 14:33N 37°56' E 023°37'0 0.0
2015-Apr-26 13:32N 37°56' E 023°37'0 0.0
2015-Apr-26 12:32N 37°56' E 023°37'0 0.0
2015-Apr-26 11:31N 37°56' E 023°37'0 0.0
2015-Apr-26 10:31N 37°56' E 023°37'0 0.0
2015-Apr-26 09:30N 37°56' E 023°37'0 0.0
2015-Apr-26 08:30N 37°56' E 023°37'0 0.0
2015-Apr-26 07:33N 37°56' E 023°37'0 0.0
2015-Apr-26 06:32N 37°56' E 023°37'0 0.0
2015-Apr-26 05:32N 37°56' E 023°37'1 1.0
2015-Apr-26 04:33N 37°56' E 023°36'8 8.4
2015-Apr-26 03:34N 37°48' E 023°41'1111.0
2015-Apr-26 02:33N 37°39' E 023°49'1110.2
2015-Apr-26 01:32N 37°34' E 024°00'24 9.7
2015-Apr-25 23:07N 37°49' E 024°24'610.1
2015-Apr-25 22:29N 37°52' E 024°30'16112.4
2015-Apr-25 09:30N 40°12' E 026°14'4 1.7
2015-Apr-25 07:27N 40°10' E 026°11'23 3.2
2015-Apr-25 00:14N 40°19' E 025°43'811.5
2015-Apr-24 23:33N 40°16' E 025°34'11 8.5
2015-Apr-24 22:19N 40°16' E 025°20'6 7.8
2015-Apr-24 21:33N 40°17' E 025°12'7 7.1
2015-Apr-24 20:32N 40°19' E 025°03'6 6.6
2015-Apr-24 19:33N 40°21' E 024°55'8 7.5
2015-Apr-24 18:33N 40°15' E 024°49'1414.1
2015-Apr-24 17:33N 40°01' E 024°47'6 6.0
2015-Apr-24 16:33N 39°55' E 024°48'6 5.2
2015-Apr-24 15:26N 39°50' E 024°52'5 5.1
2015-Apr-24 14:23N 39°46' E 024°56'5 5.9
2015-Apr-24 13:31N 39°43' E 025°02'  
Track history (hours):
 
Tides and Currents Weather Stations Pressure Air Temp Water Temp Dewpoint Dewpoint Depression Visibility Wind Speed Wind Dir Waves Ship Positions

MSC Orchestra

Last reported at 2015-May-03 22:34 UTC. Time now 2015-May-03 22:57 UTC.
Position N 36°02' W 005°18'.

Length 292 m; draft 7.6 m.

Type: Ship. MMSI: 372497000.

Date/timePositionNaut miles runAvg speedWind from/ knotsBaromVisibWave heightAir tempDewpointWater temp
2015-May-03 22:34N 36°02' W 005°18'118 6.9
2015-May-03 05:31N 36°29' W 002°55'1717.7
2015-May-03 04:33N 36°27' W 002°35'1918.0
2015-May-03 03:32N 36°26' W 002°12'1818.8
2015-May-03 02:33N 36°38' W 001°54'1918.9
2015-May-03 01:33N 36°50' W 001°37'3818.9
2015-May-02 23:32N 37°15' W 001°01'1818.8
2015-May-02 22:33N 37°27' W 000°43'1918.9
2015-May-02 21:33N 37°41' W 000°26'2020.3
2015-May-02 20:33N 37°56' W 000°10'2120.6
2015-May-02 19:33N 38°11' E 000°08'2120.4
2015-May-02 18:33N 38°27' E 000°26'2020.1
2015-May-02 17:33N 38°41' E 000°43'2020.2
2015-May-02 16:33N 38°57' E 000°60'2020.0
2015-May-02 15:33N 39°11' E 001°18'2020.0
2015-May-02 14:33N 39°24' E 001°37'2020.0
2015-May-02 13:33N 39°37' E 001°57'2019.9
2015-May-02 12:33N 39°51' E 002°16'2020.3
2015-May-02 11:33N 40°04' E 002°36'2020.3
2015-May-02 10:33N 40°18' E 002°55'2020.1
2015-May-02 09:33N 40°31' E 003°15'2019.8
2015-May-02 08:33N 40°45' E 003°34'23020.9
2015-May-01 21:32N 43°18' E 007°25'6321.0
2015-May-01 18:32N 44°00' E 008°30'2020.7
2015-May-01 17:33N 44°14' E 008°50'1110.8
2015-May-01 16:33N 44°25' E 008°55'0 0.0
2015-May-01 15:23N 44°25' E 008°55'0 0.0
2015-May-01 14:28N 44°25' E 008°55'0 0.0
2015-May-01 13:28N 44°25' E 008°55'0 0.0
2015-May-01 12:27N 44°25' E 008°55'0 0.0
2015-May-01 11:27N 44°25' E 008°55'0 0.0
2015-May-01 10:32N 44°25' E 008°55'0 0.0
2015-May-01 09:29N 44°25' E 008°55'0 0.0
2015-May-01 08:25N 44°25' E 008°55'0 0.0
2015-May-01 07:31N 44°25' E 008°55'0 0.0
2015-May-01 06:31N 44°25' E 008°55'0 0.0
2015-May-01 05:33N 44°25' E 008°55'4 4.5
2015-May-01 04:34N 44°21' E 008°58'1615.6
2015-May-01 03:34N 44°06' E 009°06'1817.8
2015-May-01 02:34N 43°49' E 009°14'1818.2
2015-May-01 01:34N 43°32' E 009°22'1818.0
2015-May-01 00:34N 43°15' E 009°30'1817.7
2015-Apr-30 23:34N 42°59' E 009°38'1818.2
2015-Apr-30 22:34N 42°47' E 009°57'1918.2
2015-Apr-30 21:31N 42°34' E 010°17'1818.4
2015-Apr-30 20:33N 42°23' E 010°35'170 6.5
2015-Apr-29 18:33N 40°40' E 013°35'1717.2
2015-Apr-29 17:33N 40°37' E 013°58'1717.3
2015-Apr-29 16:33N 40°48' E 014°16'139 6.3
2015-Apr-28 18:33N 38°32' E 013°35'1413.8
2015-Apr-28 17:33N 38°20' E 013°29'1313.2
2015-Apr-28 16:33N 38°07' E 013°23'1 1.1
2015-Apr-28 15:33N 38°08' E 013°22'0 0.0
2015-Apr-28 14:33N 38°08' E 013°22'0 0.0
2015-Apr-28 13:33N 38°08' E 013°22'0 0.0
2015-Apr-28 12:33N 38°08' E 013°22'0 0.0
2015-Apr-28 11:34N 38°08' E 013°22'0 0.0
2015-Apr-28 10:33N 38°08' E 013°22'0 0.0
2015-Apr-28 09:33N 38°08' E 013°22'0 0.0
2015-Apr-28 08:34N 38°08' E 013°22'0 0.0
2015-Apr-28 07:34N 38°08' E 013°22'0 0.0
2015-Apr-28 06:33N 38°08' E 013°22'0 0.0
2015-Apr-28 05:33N 38°08' E 013°22'0 0.0
2015-Apr-28 04:33N 38°08' E 013°22'7 7.4
2015-Apr-28 03:33N 38°10' E 013°31'1918.6
2015-Apr-28 02:33N 38°12' E 013°54'20713.6
2015-Apr-27 11:19N 37°20' E 018°08'26215.5
2015-Apr-26 18:24N 37°23' E 023°38'1518.3
2015-Apr-26 17:34N 37°38' E 023°42'1817.7
2015-Apr-26 16:33N 37°55' E 023°37'1 1.4
2015-Apr-26 15:33N 37°56' E 023°37'0 0.0
2015-Apr-26 14:33N 37°56' E 023°37'0 0.0
2015-Apr-26 13:32N 37°56' E 023°37'0 0.0
2015-Apr-26 12:32N 37°56' E 023°37'0 0.0
2015-Apr-26 11:31N 37°56' E 023°37'0 0.0
2015-Apr-26 10:31N 37°56' E 023°37'0 0.0
2015-Apr-26 09:30N 37°56' E 023°37'0 0.0
2015-Apr-26 08:30N 37°56' E 023°37'0 0.0
2015-Apr-26 07:33N 37°56' E 023°37'0 0.0
2015-Apr-26 06:32N 37°56' E 023°37'0 0.0
2015-Apr-26 05:32N 37°56' E 023°37'1 1.0
2015-Apr-26 04:33N 37°56' E 023°36'8 8.4
2015-Apr-26 03:34N 37°48' E 023°41'1111.0
2015-Apr-26 02:33N 37°39' E 023°49'1110.2
2015-Apr-26 01:32N 37°34' E 024°00'24 9.7
2015-Apr-25 23:07N 37°49' E 024°24'610.1
2015-Apr-25 22:29N 37°52' E 024°30'16112.4
2015-Apr-25 09:30N 40°12' E 026°14'4 1.7
2015-Apr-25 07:27N 40°10' E 026°11'23 3.2
2015-Apr-25 00:14N 40°19' E 025°43'811.5
2015-Apr-24 23:33N 40°16' E 025°34'11 8.5
2015-Apr-24 22:19N 40°16' E 025°20'6 7.8
2015-Apr-24 21:33N 40°17' E 025°12'7 7.1
2015-Apr-24 20:32N 40°19' E 025°03'6 6.6
2015-Apr-24 19:33N 40°21' E 024°55'8 7.5
2015-Apr-24 18:33N 40°15' E 024°49'1414.1
2015-Apr-24 17:33N 40°01' E 024°47'6 6.0
2015-Apr-24 16:33N 39°55' E 024°48'6 5.2
2015-Apr-24 15:26N 39°50' E 024°52'5 5.1
2015-Apr-24 14:23N 39°46' E 024°56'5 5.9
2015-Apr-24 13:31N 39°43' E 025°02'  

Dump ship's entire track history